sensor_id;sensor_type;location;lat;lon;timestamp;P1;durP1;ratioP1;P2;durP2;ratioP2
9392;SDS011;4736;52.508;13.422;2023-04-06T00:02:15;10.30;;;9.50;;
9392;SDS011;4736;52.508;13.422;2023-04-06T00:05:19;10.43;;;9.53;;
9392;SDS011;4736;52.508;13.422;2023-04-06T00:08:24;10.57;;;9.57;;
9392;SDS011;4736;52.508;13.422;2023-04-06T00:11:28;10.97;;;9.87;;
9392;SDS011;4736;52.508;13.422;2023-04-06T00:14:31;10.87;;;9.87;;
9392;SDS011;4736;52.508;13.422;2023-04-06T00:17:34;12.50;;;10.07;;
9392;SDS011;4736;52.508;13.422;2023-04-06T00:20:38;11.00;;;10.10;;
9392;SDS011;4736;52.508;13.422;2023-04-06T00:23:43;10.57;;;9.77;;
9392;SDS011;4736;52.508;13.422;2023-04-06T00:26:46;10.50;;;9.50;;
9392;SDS011;4736;52.508;13.422;2023-04-06T00:29:49;9.60;;;8.90;;
9392;SDS011;4736;52.508;13.422;2023-04-06T00:32:53;10.20;;;9.40;;
9392;SDS011;4736;52.508;13.422;2023-04-06T00:35:56;11.03;;;9.93;;
9392;SDS011;4736;52.508;13.422;2023-04-06T00:39:02;9.70;;;9.00;;
9392;SDS011;4736;52.508;13.422;2023-04-06T00:42:07;9.60;;;8.70;;
9392;SDS011;4736;52.508;13.422;2023-04-06T00:45:14;9.90;;;9.10;;
9392;SDS011;4736;52.508;13.422;2023-04-06T00:48:17;9.90;;;9.20;;
9392;SDS011;4736;52.508;13.422;2023-04-06T00:51:22;9.80;;;8.97;;
9392;SDS011;4736;52.508;13.422;2023-04-06T00:54:26;10.33;;;9.40;;
9392;SDS011;4736;52.508;13.422;2023-04-06T00:57:30;9.20;;;8.50;;
9392;SDS011;4736;52.508;13.422;2023-04-06T01:00:34;9.87;;;9.17;;
9392;SDS011;4736;52.508;13.422;2023-04-06T01:03:37;10.13;;;9.33;;
9392;SDS011;4736;52.508;13.422;2023-04-06T01:06:41;9.67;;;8.73;;
9392;SDS011;4736;52.508;13.422;2023-04-06T01:09:45;9.77;;;8.97;;
9392;SDS011;4736;52.508;13.422;2023-04-06T01:12:48;10.50;;;9.60;;
9392;SDS011;4736;52.508;13.422;2023-04-06T01:15:52;9.90;;;9.03;;
9392;SDS011;4736;52.508;13.422;2023-04-06T01:18:55;11.30;;;9.67;;
9392;SDS011;4736;52.508;13.422;2023-04-06T01:21:59;10.10;;;9.00;;
9392;SDS011;4736;52.508;13.422;2023-04-06T01:25:04;10.33;;;9.43;;
9392;SDS011;4736;52.508;13.422;2023-04-06T01:28:08;9.70;;;8.87;;
9392;SDS011;4736;52.508;13.422;2023-04-06T01:31:11;8.67;;;8.07;;
9392;SDS011;4736;52.508;13.422;2023-04-06T01:34:14;9.47;;;8.63;;
9392;SDS011;4736;52.508;13.422;2023-04-06T01:37:18;9.57;;;8.70;;
9392;SDS011;4736;52.508;13.422;2023-04-06T01:40:23;8.60;;;7.90;;
9392;SDS011;4736;52.508;13.422;2023-04-06T01:43:26;9.07;;;8.37;;
9392;SDS011;4736;52.508;13.422;2023-04-06T01:46:29;8.97;;;8.17;;
9392;SDS011;4736;52.508;13.422;2023-04-06T01:49:33;9.67;;;8.27;;
9392;SDS011;4736;52.508;13.422;2023-04-06T01:52:36;8.67;;;7.87;;
9392;SDS011;4736;52.508;13.422;2023-04-06T01:55:41;8.30;;;7.80;;
9392;SDS011;4736;52.508;13.422;2023-04-06T01:58:44;9.60;;;8.90;;
9392;SDS011;4736;52.508;13.422;2023-04-06T02:01:48;8.90;;;8.17;;
9392;SDS011;4736;52.508;13.422;2023-04-06T02:04:51;9.23;;;8.53;;
9392;SDS011;4736;52.508;13.422;2023-04-06T02:07:54;9.60;;;8.80;;
9392;SDS011;4736;52.508;13.422;2023-04-06T02:10:59;8.70;;;8.10;;
9392;SDS011;4736;52.508;13.422;2023-04-06T02:14:02;9.30;;;8.43;;
9392;SDS011;4736;52.508;13.422;2023-04-06T02:17:06;9.37;;;8.47;;
9392;SDS011;4736;52.508;13.422;2023-04-06T02:20:09;11.13;;;8.90;;
9392;SDS011;4736;52.508;13.422;2023-04-06T02:23:13;9.67;;;8.87;;
9392;SDS011;4736;52.508;13.422;2023-04-06T02:26:17;8.93;;;8.30;;
9392;SDS011;4736;52.508;13.422;2023-04-06T02:29:21;8.73;;;8.00;;
9392;SDS011;4736;52.508;13.422;2023-04-06T02:32:27;8.20;;;7.70;;
9392;SDS011;4736;52.508;13.422;2023-04-06T02:35:31;8.23;;;7.63;;
9392;SDS011;4736;52.508;13.422;2023-04-06T02:38:34;8.37;;;7.67;;
9392;SDS011;4736;52.508;13.422;2023-04-06T02:41:39;8.10;;;7.37;;
9392;SDS011;4736;52.508;13.422;2023-04-06T02:44:42;8.47;;;7.73;;
9392;SDS011;4736;52.508;13.422;2023-04-06T02:47:46;12.53;;;10.07;;
9392;SDS011;4736;52.508;13.422;2023-04-06T02:50:49;9.10;;;8.33;;
9392;SDS011;4736;52.508;13.422;2023-04-06T02:53:52;8.83;;;8.13;;
9392;SDS011;4736;52.508;13.422;2023-04-06T02:56:57;8.93;;;8.33;;
9392;SDS011;4736;52.508;13.422;2023-04-06T03:00:01;9.13;;;8.40;;
9392;SDS011;4736;52.508;13.422;2023-04-06T03:03:04;9.37;;;8.47;;
9392;SDS011;4736;52.508;13.422;2023-04-06T03:06:08;8.97;;;8.37;;
9392;SDS011;4736;52.508;13.422;2023-04-06T03:09:12;8.67;;;8.07;;
9392;SDS011;4736;52.508;13.422;2023-04-06T03:12:17;10.10;;;9.30;;
9392;SDS011;4736;52.508;13.422;2023-04-06T03:15:20;10.47;;;9.63;;
9392;SDS011;4736;52.508;13.422;2023-04-06T03:18:24;10.53;;;9.63;;
9392;SDS011;4736;52.508;13.422;2023-04-06T03:21:27;11.83;;;10.93;;
9392;SDS011;4736;52.508;13.422;2023-04-06T03:24:31;11.93;;;10.93;;
9392;SDS011;4736;52.508;13.422;2023-04-06T03:27:35;12.73;;;11.60;;
9392;SDS011;4736;52.508;13.422;2023-04-06T03:30:38;12.93;;;11.90;;
9392;SDS011;4736;52.508;13.422;2023-04-06T03:33:42;13.30;;;12.17;;
9392;SDS011;4736;52.508;13.422;2023-04-06T03:36:45;12.77;;;11.80;;
9392;SDS011;4736;52.508;13.422;2023-04-06T03:40:03;11.87;;;10.70;;
9392;SDS011;4736;52.508;13.422;2023-04-06T03:43:09;12.10;;;10.97;;
9392;SDS011;4736;52.508;13.422;2023-04-06T03:46:13;13.27;;;12.17;;
9392;SDS011;4736;52.508;13.422;2023-04-06T03:49:16;13.50;;;12.30;;
9392;SDS011;4736;52.508;13.422;2023-04-06T03:52:20;12.50;;;11.40;;
9392;SDS011;4736;52.508;13.422;2023-04-06T03:55:24;13.47;;;12.17;;
9392;SDS011;4736;52.508;13.422;2023-04-06T03:58:29;12.73;;;11.83;;
9392;SDS011;4736;52.508;13.422;2023-04-06T04:01:32;13.10;;;12.00;;
9392;SDS011;4736;52.508;13.422;2023-04-06T04:04:35;13.13;;;11.90;;
9392;SDS011;4736;52.508;13.422;2023-04-06T04:07:39;12.33;;;11.23;;
9392;SDS011;4736;52.508;13.422;2023-04-06T04:10:42;14.80;;;13.50;;
9392;SDS011;4736;52.508;13.422;2023-04-06T04:13:47;13.50;;;12.20;;
9392;SDS011;4736;52.508;13.422;2023-04-06T04:16:50;12.80;;;11.73;;
9392;SDS011;4736;52.508;13.422;2023-04-06T04:19:54;12.67;;;11.47;;
9392;SDS011;4736;52.508;13.422;2023-04-06T04:22:57;14.90;;;13.50;;
9392;SDS011;4736;52.508;13.422;2023-04-06T04:26:00;14.40;;;12.20;;
9392;SDS011;4736;52.508;13.422;2023-04-06T04:29:05;13.70;;;12.43;;
9392;SDS011;4736;52.508;13.422;2023-04-06T04:32:09;13.70;;;12.50;;
9392;SDS011;4736;52.508;13.422;2023-04-06T04:35:13;13.57;;;12.40;;
9392;SDS011;4736;52.508;13.422;2023-04-06T04:38:16;13.00;;;11.87;;
9392;SDS011;4736;52.508;13.422;2023-04-06T04:41:20;14.40;;;13.10;;
9392;SDS011;4736;52.508;13.422;2023-04-06T04:44:24;14.27;;;13.07;;
9392;SDS011;4736;52.508;13.422;2023-04-06T04:47:28;14.07;;;12.70;;
9392;SDS011;4736;52.508;13.422;2023-04-06T04:50:31;13.60;;;12.50;;
9392;SDS011;4736;52.508;13.422;2023-04-06T04:53:34;13.27;;;11.87;;
9392;SDS011;4736;52.508;13.422;2023-04-06T04:56:37;13.37;;;12.23;;
9392;SDS011;4736;52.508;13.422;2023-04-06T04:59:42;13.30;;;12.03;;
9392;SDS011;4736;52.508;13.422;2023-04-06T05:02:45;13.30;;;12.17;;
9392;SDS011;4736;52.508;13.422;2023-04-06T05:05:48;12.77;;;11.70;;
9392;SDS011;4736;52.508;13.422;2023-04-06T05:08:52;13.07;;;11.83;;
9392;SDS011;4736;52.508;13.422;2023-04-06T05:11:55;13.27;;;12.17;;
9392;SDS011;4736;52.508;13.422;2023-04-06T05:15:00;11.33;;;10.47;;
9392;SDS011;4736;52.508;13.422;2023-04-06T05:18:03;13.27;;;11.90;;
9392;SDS011;4736;52.508;13.422;2023-04-06T05:21:07;12.10;;;11.00;;
9392;SDS011;4736;52.508;13.422;2023-04-06T05:24:11;12.10;;;11.10;;
9392;SDS011;4736;52.508;13.422;2023-04-06T05:27:15;12.80;;;11.63;;
9392;SDS011;4736;52.508;13.422;2023-04-06T05:30:20;12.03;;;11.13;;
9392;SDS011;4736;52.508;13.422;2023-04-06T05:33:23;11.97;;;10.80;;
9392;SDS011;4736;52.508;13.422;2023-04-06T05:36:28;11.90;;;10.73;;
9392;SDS011;4736;52.508;13.422;2023-04-06T05:39:33;11.63;;;10.77;;
9392;SDS011;4736;52.508;13.422;2023-04-06T05:42:36;13.07;;;11.77;;
9392;SDS011;4736;52.508;13.422;2023-04-06T05:45:41;11.63;;;10.63;;
9392;SDS011;4736;52.508;13.422;2023-04-06T05:48:46;12.90;;;11.50;;
9392;SDS011;4736;52.508;13.422;2023-04-06T05:51:49;14.90;;;11.37;;
9392;SDS011;4736;52.508;13.422;2023-04-06T05:54:53;12.33;;;10.80;;
9392;SDS011;4736;52.508;13.422;2023-04-06T05:57:56;19.30;;;11.97;;
9392;SDS011;4736;52.508;13.422;2023-04-06T06:01:01;13.23;;;11.80;;
9392;SDS011;4736;52.508;13.422;2023-04-06T06:04:06;12.40;;;11.40;;
9392;SDS011;4736;52.508;13.422;2023-04-06T06:07:09;16.03;;;10.97;;
9392;SDS011;4736;52.508;13.422;2023-04-06T06:10:12;11.00;;;10.10;;
9392;SDS011;4736;52.508;13.422;2023-04-06T06:13:16;12.60;;;11.17;;
9392;SDS011;4736;52.508;13.422;2023-04-06T06:16:20;11.30;;;10.20;;
9392;SDS011;4736;52.508;13.422;2023-04-06T06:19:24;11.00;;;9.87;;
9392;SDS011;4736;52.508;13.422;2023-04-06T06:22:27;10.60;;;9.67;;
9392;SDS011;4736;52.508;13.422;2023-04-06T06:25:30;10.43;;;9.43;;
9392;SDS011;4736;52.508;13.422;2023-04-06T06:28:36;11.30;;;10.20;;
9392;SDS011;4736;52.508;13.422;2023-04-06T06:31:40;11.13;;;10.00;;
9392;SDS011;4736;52.508;13.422;2023-04-06T06:34:44;11.40;;;10.30;;
9392;SDS011;4736;52.508;13.422;2023-04-06T06:37:47;12.50;;;11.30;;
9392;SDS011;4736;52.508;13.422;2023-04-06T06:40:50;11.30;;;10.33;;
9392;SDS011;4736;52.508;13.422;2023-04-06T06:43:54;11.30;;;10.23;;
9392;SDS011;4736;52.508;13.422;2023-04-06T06:46:58;12.50;;;10.17;;
9392;SDS011;4736;52.508;13.422;2023-04-06T06:50:02;10.57;;;9.47;;
9392;SDS011;4736;52.508;13.422;2023-04-06T06:53:05;10.87;;;10.03;;
9392;SDS011;4736;52.508;13.422;2023-04-06T06:56:10;13.13;;;10.30;;
9392;SDS011;4736;52.508;13.422;2023-04-06T06:59:15;9.80;;;8.87;;
9392;SDS011;4736;52.508;13.422;2023-04-06T07:02:20;14.20;;;10.47;;
9392;SDS011;4736;52.508;13.422;2023-04-06T07:05:23;9.57;;;8.67;;
9392;SDS011;4736;52.508;13.422;2023-04-06T07:08:29;15.13;;;9.30;;
9392;SDS011;4736;52.508;13.422;2023-04-06T07:11:33;9.27;;;8.50;;
9392;SDS011;4736;52.508;13.422;2023-04-06T07:14:36;8.83;;;8.23;;
9392;SDS011;4736;52.508;13.422;2023-04-06T07:17:40;9.00;;;8.20;;
9392;SDS011;4736;52.508;13.422;2023-04-06T07:20:46;9.63;;;8.80;;
9392;SDS011;4736;52.508;13.422;2023-04-06T07:23:49;9.37;;;8.60;;
9392;SDS011;4736;52.508;13.422;2023-04-06T07:26:53;8.67;;;7.97;;
9392;SDS011;4736;52.508;13.422;2023-04-06T07:29:57;9.93;;;9.10;;
9392;SDS011;4736;52.508;13.422;2023-04-06T07:33:01;9.13;;;8.40;;
9392;SDS011;4736;52.508;13.422;2023-04-06T07:36:05;9.07;;;7.67;;
9392;SDS011;4736;52.508;13.422;2023-04-06T07:39:08;10.23;;;9.17;;
9392;SDS011;4736;52.508;13.422;2023-04-06T07:42:11;9.03;;;7.60;;
9392;SDS011;4736;52.508;13.422;2023-04-06T07:45:15;8.47;;;7.90;;
9392;SDS011;4736;52.508;13.422;2023-04-06T07:48:19;9.03;;;8.13;;
9392;SDS011;4736;52.508;13.422;2023-04-06T07:51:22;10.60;;;8.20;;
9392;SDS011;4736;52.508;13.422;2023-04-06T07:54:26;8.10;;;7.60;;
9392;SDS011;4736;52.508;13.422;2023-04-06T07:57:29;7.40;;;6.90;;
9392;SDS011;4736;52.508;13.422;2023-04-06T08:00:33;7.77;;;6.90;;
9392;SDS011;4736;52.508;13.422;2023-04-06T08:03:39;10.00;;;7.23;;
9392;SDS011;4736;52.508;13.422;2023-04-06T08:06:43;7.57;;;6.87;;
9392;SDS011;4736;52.508;13.422;2023-04-06T08:09:46;7.33;;;6.63;;
9392;SDS011;4736;52.508;13.422;2023-04-06T08:12:49;7.57;;;7.10;;
9392;SDS011;4736;52.508;13.422;2023-04-06T08:15:53;7.20;;;6.50;;
9392;SDS011;4736;52.508;13.422;2023-04-06T08:18:57;7.50;;;7.00;;
9392;SDS011;4736;52.508;13.422;2023-04-06T08:22:02;7.40;;;6.70;;
9392;SDS011;4736;52.508;13.422;2023-04-06T08:25:05;7.67;;;6.80;;
9392;SDS011;4736;52.508;13.422;2023-04-06T08:28:09;6.87;;;6.40;;
9392;SDS011;4736;52.508;13.422;2023-04-06T08:31:12;6.90;;;6.30;;
9392;SDS011;4736;52.508;13.422;2023-04-06T08:34:17;6.17;;;5.80;;
9392;SDS011;4736;52.508;13.422;2023-04-06T08:37:20;5.47;;;5.17;;
9392;SDS011;4736;52.508;13.422;2023-04-06T08:40:23;5.70;;;5.30;;
9392;SDS011;4736;52.508;13.422;2023-04-06T08:43:29;6.87;;;5.27;;
9392;SDS011;4736;52.508;13.422;2023-04-06T08:46:33;5.83;;;5.17;;
9392;SDS011;4736;52.508;13.422;2023-04-06T08:49:38;5.77;;;5.50;;
9392;SDS011;4736;52.508;13.422;2023-04-06T08:52:42;8.30;;;7.47;;
9392;SDS011;4736;52.508;13.422;2023-04-06T08:55:46;6.30;;;5.70;;
9392;SDS011;4736;52.508;13.422;2023-04-06T08:58:49;5.80;;;5.23;;
9392;SDS011;4736;52.508;13.422;2023-04-06T09:01:56;4.73;;;4.43;;
9392;SDS011;4736;52.508;13.422;2023-04-06T09:05:01;4.00;;;3.80;;
9392;SDS011;4736;52.508;13.422;2023-04-06T09:08:05;4.37;;;4.07;;
9392;SDS011;4736;52.508;13.422;2023-04-06T09:11:08;4.67;;;4.33;;
9392;SDS011;4736;52.508;13.422;2023-04-06T09:14:12;4.70;;;4.50;;
9392;SDS011;4736;52.508;13.422;2023-04-06T09:17:19;4.87;;;4.60;;
9392;SDS011;4736;52.508;13.422;2023-04-06T09:20:25;4.70;;;4.40;;
9392;SDS011;4736;52.508;13.422;2023-04-06T09:23:29;5.10;;;4.70;;
9392;SDS011;4736;52.508;13.422;2023-04-06T09:26:43;5.00;;;4.60;;
9392;SDS011;4736;52.508;13.422;2023-04-06T09:29:49;5.90;;;5.50;;
9392;SDS011;4736;52.508;13.422;2023-04-06T09:32:53;4.50;;;4.20;;
9392;SDS011;4736;52.508;13.422;2023-04-06T09:35:59;4.60;;;4.30;;
9392;SDS011;4736;52.508;13.422;2023-04-06T09:39:04;4.80;;;4.50;;
9392;SDS011;4736;52.508;13.422;2023-04-06T09:42:07;4.33;;;4.03;;
9392;SDS011;4736;52.508;13.422;2023-04-06T09:45:11;4.37;;;4.10;;
9392;SDS011;4736;52.508;13.422;2023-04-06T09:48:14;4.33;;;3.90;;
9392;SDS011;4736;52.508;13.422;2023-04-06T09:51:18;4.70;;;3.97;;
9392;SDS011;4736;52.508;13.422;2023-04-06T09:54:22;3.93;;;3.83;;
9392;SDS011;4736;52.508;13.422;2023-04-06T09:57:31;4.03;;;3.73;;
9392;SDS011;4736;52.508;13.422;2023-04-06T10:00:40;4.47;;;4.17;;
9392;SDS011;4736;52.508;13.422;2023-04-06T10:03:48;4.30;;;4.10;;
9392;SDS011;4736;52.508;13.422;2023-04-06T10:06:58;4.20;;;4.00;;
9392;SDS011;4736;52.508;13.422;2023-04-06T10:10:02;4.50;;;4.23;;
9392;SDS011;4736;52.508;13.422;2023-04-06T10:13:07;3.90;;;3.70;;
9392;SDS011;4736;52.508;13.422;2023-04-06T10:16:12;4.30;;;4.10;;
9392;SDS011;4736;52.508;13.422;2023-04-06T10:19:18;4.33;;;3.90;;
9392;SDS011;4736;52.508;13.422;2023-04-06T10:22:29;5.80;;;4.13;;
9392;SDS011;4736;52.508;13.422;2023-04-06T10:25:38;3.27;;;3.27;;
9392;SDS011;4736;52.508;13.422;2023-04-06T10:28:42;3.67;;;3.47;;
9392;SDS011;4736;52.508;13.422;2023-04-06T10:31:48;3.50;;;3.40;;
9392;SDS011;4736;52.508;13.422;2023-04-06T10:34:51;3.60;;;3.40;;
9392;SDS011;4736;52.508;13.422;2023-04-06T10:38:03;3.20;;;3.20;;
9392;SDS011;4736;52.508;13.422;2023-04-06T10:41:08;4.57;;;4.20;;
9392;SDS011;4736;52.508;13.422;2023-04-06T10:44:17;3.77;;;3.67;;
9392;SDS011;4736;52.508;13.422;2023-04-06T10:47:22;3.40;;;3.30;;
9392;SDS011;4736;52.508;13.422;2023-04-06T10:50:26;4.23;;;3.83;;
9392;SDS011;4736;52.508;13.422;2023-04-06T10:53:33;3.47;;;3.37;;
9392;SDS011;4736;52.508;13.422;2023-04-06T10:56:37;4.07;;;3.70;;
9392;SDS011;4736;52.508;13.422;2023-04-06T10:59:42;4.07;;;3.90;;
9392;SDS011;4736;52.508;13.422;2023-04-06T11:02:45;3.90;;;3.60;;
9392;SDS011;4736;52.508;13.422;2023-04-06T11:05:52;4.30;;;3.70;;
9392;SDS011;4736;52.508;13.422;2023-04-06T11:08:57;5.07;;;3.87;;
9392;SDS011;4736;52.508;13.422;2023-04-06T11:12:00;4.30;;;4.00;;
9392;SDS011;4736;52.508;13.422;2023-04-06T11:15:04;4.17;;;3.97;;
9392;SDS011;4736;52.508;13.422;2023-04-06T11:18:08;3.97;;;3.77;;
9392;SDS011;4736;52.508;13.422;2023-04-06T11:21:12;3.33;;;3.30;;
9392;SDS011;4736;52.508;13.422;2023-04-06T11:24:17;3.57;;;3.47;;
9392;SDS011;4736;52.508;13.422;2023-04-06T11:27:21;4.20;;;3.90;;
9392;SDS011;4736;52.508;13.422;2023-04-06T11:30:26;4.10;;;3.80;;
9392;SDS011;4736;52.508;13.422;2023-04-06T11:33:34;3.57;;;3.37;;
9392;SDS011;4736;52.508;13.422;2023-04-06T11:36:41;4.60;;;4.30;;
9392;SDS011;4736;52.508;13.422;2023-04-06T11:39:48;4.30;;;4.00;;
9392;SDS011;4736;52.508;13.422;2023-04-06T11:42:52;4.17;;;3.97;;
9392;SDS011;4736;52.508;13.422;2023-04-06T11:46:00;6.83;;;4.00;;
9392;SDS011;4736;52.508;13.422;2023-04-06T11:49:04;3.80;;;3.53;;
9392;SDS011;4736;52.508;13.422;2023-04-06T11:52:14;4.10;;;3.90;;
9392;SDS011;4736;52.508;13.422;2023-04-06T11:55:20;3.87;;;3.67;;
9392;SDS011;4736;52.508;13.422;2023-04-06T11:58:23;3.50;;;3.40;;
9392;SDS011;4736;52.508;13.422;2023-04-06T12:01:29;4.20;;;3.90;;
9392;SDS011;4736;52.508;13.422;2023-04-06T12:04:39;3.73;;;3.53;;
9392;SDS011;4736;52.508;13.422;2023-04-06T12:07:42;3.67;;;3.57;;
9392;SDS011;4736;52.508;13.422;2023-04-06T12:10:47;4.07;;;3.80;;
9392;SDS011;4736;52.508;13.422;2023-04-06T12:13:50;4.00;;;3.80;;
9392;SDS011;4736;52.508;13.422;2023-04-06T12:16:55;4.33;;;3.97;;
9392;SDS011;4736;52.508;13.422;2023-04-06T12:19:59;3.80;;;3.70;;
9392;SDS011;4736;52.508;13.422;2023-04-06T12:23:14;4.20;;;4.00;;
9392;SDS011;4736;52.508;13.422;2023-04-06T12:26:18;3.90;;;3.80;;
9392;SDS011;4736;52.508;13.422;2023-04-06T12:29:22;4.33;;;4.03;;
9392;SDS011;4736;52.508;13.422;2023-04-06T12:32:26;4.33;;;3.83;;
9392;SDS011;4736;52.508;13.422;2023-04-06T12:35:32;3.50;;;3.40;;
9392;SDS011;4736;52.508;13.422;2023-04-06T12:38:36;3.83;;;3.70;;
9392;SDS011;4736;52.508;13.422;2023-04-06T12:41:43;3.73;;;3.53;;
9392;SDS011;4736;52.508;13.422;2023-04-06T12:44:46;4.50;;;4.10;;
9392;SDS011;4736;52.508;13.422;2023-04-06T12:47:50;6.63;;;4.30;;
9392;SDS011;4736;52.508;13.422;2023-04-06T12:50:57;3.90;;;3.60;;
9392;SDS011;4736;52.508;13.422;2023-04-06T12:54:01;3.93;;;3.80;;
9392;SDS011;4736;52.508;13.422;2023-04-06T12:57:05;3.87;;;3.77;;
9392;SDS011;4736;52.508;13.422;2023-04-06T13:00:09;4.20;;;4.10;;
9392;SDS011;4736;52.508;13.422;2023-04-06T13:03:13;3.63;;;3.40;;
9392;SDS011;4736;52.508;13.422;2023-04-06T13:06:16;3.77;;;3.67;;
9392;SDS011;4736;52.508;13.422;2023-04-06T13:09:20;3.60;;;3.40;;
9392;SDS011;4736;52.508;13.422;2023-04-06T13:12:24;3.90;;;3.70;;
9392;SDS011;4736;52.508;13.422;2023-04-06T13:15:28;4.10;;;3.80;;
9392;SDS011;4736;52.508;13.422;2023-04-06T13:18:32;3.63;;;3.50;;
9392;SDS011;4736;52.508;13.422;2023-04-06T13:21:35;4.03;;;3.83;;
9392;SDS011;4736;52.508;13.422;2023-04-06T13:24:39;3.63;;;3.53;;
9392;SDS011;4736;52.508;13.422;2023-04-06T13:27:43;4.50;;;4.30;;
9392;SDS011;4736;52.508;13.422;2023-04-06T13:30:49;4.57;;;4.17;;
9392;SDS011;4736;52.508;13.422;2023-04-06T13:33:52;4.80;;;4.53;;
9392;SDS011;4736;52.508;13.422;2023-04-06T13:36:55;3.63;;;3.43;;
9392;SDS011;4736;52.508;13.422;2023-04-06T13:39:58;4.10;;;3.80;;
9392;SDS011;4736;52.508;13.422;2023-04-06T13:43:03;4.23;;;4.03;;
9392;SDS011;4736;52.508;13.422;2023-04-06T13:46:06;4.50;;;4.10;;
9392;SDS011;4736;52.508;13.422;2023-04-06T13:49:10;3.90;;;3.80;;
9392;SDS011;4736;52.508;13.422;2023-04-06T13:52:14;4.03;;;3.93;;
9392;SDS011;4736;52.508;13.422;2023-04-06T13:55:17;4.37;;;4.00;;
9392;SDS011;4736;52.508;13.422;2023-04-06T13:58:22;3.73;;;3.63;;
9392;SDS011;4736;52.508;13.422;2023-04-06T14:01:25;4.07;;;3.80;;
9392;SDS011;4736;52.508;13.422;2023-04-06T14:04:29;4.13;;;3.83;;
9392;SDS011;4736;52.508;13.422;2023-04-06T14:07:32;3.73;;;3.63;;
9392;SDS011;4736;52.508;13.422;2023-04-06T14:10:36;3.97;;;3.77;;
9392;SDS011;4736;52.508;13.422;2023-04-06T14:13:42;4.87;;;3.73;;
9392;SDS011;4736;52.508;13.422;2023-04-06T14:16:46;3.40;;;3.30;;
9392;SDS011;4736;52.508;13.422;2023-04-06T14:19:49;3.83;;;3.63;;
9392;SDS011;4736;52.508;13.422;2023-04-06T14:22:54;3.40;;;3.30;;
9392;SDS011;4736;52.508;13.422;2023-04-06T14:26:00;3.90;;;3.60;;
9392;SDS011;4736;52.508;13.422;2023-04-06T14:29:06;3.73;;;3.63;;
9392;SDS011;4736;52.508;13.422;2023-04-06T14:32:09;4.17;;;3.90;;
9392;SDS011;4736;52.508;13.422;2023-04-06T14:35:12;3.73;;;3.63;;
9392;SDS011;4736;52.508;13.422;2023-04-06T14:38:15;3.80;;;3.70;;
9392;SDS011;4736;52.508;13.422;2023-04-06T14:41:19;3.37;;;3.37;;
9392;SDS011;4736;52.508;13.422;2023-04-06T14:44:25;4.40;;;4.10;;
9392;SDS011;4736;52.508;13.422;2023-04-06T14:47:28;3.97;;;3.87;;
9392;SDS011;4736;52.508;13.422;2023-04-06T14:50:31;4.47;;;4.20;;
9392;SDS011;4736;52.508;13.422;2023-04-06T14:53:35;4.13;;;4.03;;
9392;SDS011;4736;52.508;13.422;2023-04-06T14:56:38;3.93;;;3.73;;
9392;SDS011;4736;52.508;13.422;2023-04-06T14:59:43;4.07;;;3.83;;
9392;SDS011;4736;52.508;13.422;2023-04-06T15:02:46;3.90;;;3.70;;
9392;SDS011;4736;52.508;13.422;2023-04-06T15:05:49;4.13;;;3.93;;
9392;SDS011;4736;52.508;13.422;2023-04-06T15:08:53;3.90;;;3.70;;
9392;SDS011;4736;52.508;13.422;2023-04-06T15:11:56;4.43;;;4.20;;
9392;SDS011;4736;52.508;13.422;2023-04-06T15:15:00;3.77;;;3.57;;
9392;SDS011;4736;52.508;13.422;2023-04-06T15:18:07;4.30;;;4.10;;
9392;SDS011;4736;52.508;13.422;2023-04-06T15:21:10;4.60;;;4.30;;
9392;SDS011;4736;52.508;13.422;2023-04-06T15:24:14;3.83;;;3.73;;
9392;SDS011;4736;52.508;13.422;2023-04-06T15:27:17;4.30;;;4.10;;
9392;SDS011;4736;52.508;13.422;2023-04-06T15:30:21;3.60;;;3.50;;
9392;SDS011;4736;52.508;13.422;2023-04-06T15:33:24;4.67;;;4.37;;
9392;SDS011;4736;52.508;13.422;2023-04-06T15:36:28;4.30;;;4.00;;
9392;SDS011;4736;52.508;13.422;2023-04-06T15:39:31;3.70;;;3.60;;
9392;SDS011;4736;52.508;13.422;2023-04-06T15:42:34;4.20;;;4.10;;
9392;SDS011;4736;52.508;13.422;2023-04-06T15:45:39;4.80;;;4.60;;
9392;SDS011;4736;52.508;13.422;2023-04-06T15:48:42;4.60;;;4.30;;
9392;SDS011;4736;52.508;13.422;2023-04-06T15:51:46;4.50;;;4.20;;
9392;SDS011;4736;52.508;13.422;2023-04-06T15:54:49;4.50;;;4.20;;
9392;SDS011;4736;52.508;13.422;2023-04-06T15:57:52;4.30;;;4.10;;
9392;SDS011;4736;52.508;13.422;2023-04-06T16:00:57;4.70;;;4.30;;
9392;SDS011;4736;52.508;13.422;2023-04-06T16:04:00;4.47;;;4.27;;
9392;SDS011;4736;52.508;13.422;2023-04-06T16:07:03;4.93;;;4.63;;
9392;SDS011;4736;52.508;13.422;2023-04-06T16:10:07;4.67;;;4.47;;
9392;SDS011;4736;52.508;13.422;2023-04-06T16:13:10;4.17;;;3.97;;
9392;SDS011;4736;52.508;13.422;2023-04-06T16:16:15;3.97;;;3.87;;
9392;SDS011;4736;52.508;13.422;2023-04-06T16:19:18;4.70;;;4.40;;
9392;SDS011;4736;52.508;13.422;2023-04-06T16:22:21;5.13;;;4.63;;
9392;SDS011;4736;52.508;13.422;2023-04-06T16:25:24;4.03;;;3.90;;
9392;SDS011;4736;52.508;13.422;2023-04-06T16:28:28;4.00;;;3.90;;
9392;SDS011;4736;52.508;13.422;2023-04-06T16:31:33;4.60;;;4.40;;
9392;SDS011;4736;52.508;13.422;2023-04-06T16:34:36;3.90;;;3.80;;
9392;SDS011;4736;52.508;13.422;2023-04-06T16:37:39;4.13;;;4.00;;
9392;SDS011;4736;52.508;13.422;2023-04-06T16:40:42;4.30;;;4.20;;
9392;SDS011;4736;52.508;13.422;2023-04-06T16:43:45;4.50;;;4.30;;
9392;SDS011;4736;52.508;13.422;2023-04-06T16:46:50;4.60;;;4.50;;
9392;SDS011;4736;52.508;13.422;2023-04-06T16:49:53;4.07;;;3.90;;
9392;SDS011;4736;52.508;13.422;2023-04-06T16:53:06;4.13;;;4.00;;
9392;SDS011;4736;52.508;13.422;2023-04-06T16:56:12;4.10;;;4.00;;
9392;SDS011;4736;52.508;13.422;2023-04-06T16:59:15;4.30;;;4.20;;
9392;SDS011;4736;52.508;13.422;2023-04-06T17:02:19;4.77;;;4.60;;
9392;SDS011;4736;52.508;13.422;2023-04-06T17:05:22;4.20;;;4.00;;
9392;SDS011;4736;52.508;13.422;2023-04-06T17:08:27;4.40;;;4.20;;
9392;SDS011;4736;52.508;13.422;2023-04-06T17:11:30;4.40;;;4.17;;
9392;SDS011;4736;52.508;13.422;2023-04-06T17:14:46;4.17;;;3.93;;
9392;SDS011;4736;52.508;13.422;2023-04-06T17:17:50;4.17;;;3.97;;
9392;SDS011;4736;52.508;13.422;2023-04-06T17:20:54;4.83;;;4.43;;
9392;SDS011;4736;52.508;13.422;2023-04-06T17:23:57;5.03;;;4.73;;
9392;SDS011;4736;52.508;13.422;2023-04-06T17:27:00;5.03;;;4.73;;
9392;SDS011;4736;52.508;13.422;2023-04-06T17:30:04;4.40;;;4.07;;
9392;SDS011;4736;52.508;13.422;2023-04-06T17:33:13;4.30;;;4.10;;
9392;SDS011;4736;52.508;13.422;2023-04-06T17:36:17;4.10;;;4.00;;
9392;SDS011;4736;52.508;13.422;2023-04-06T17:39:22;4.60;;;4.40;;
9392;SDS011;4736;52.508;13.422;2023-04-06T17:42:25;4.43;;;4.30;;
9392;SDS011;4736;52.508;13.422;2023-04-06T17:45:28;4.67;;;4.40;;
9392;SDS011;4736;52.508;13.422;2023-04-06T17:48:32;4.70;;;4.50;;
9392;SDS011;4736;52.508;13.422;2023-04-06T17:51:36;4.73;;;4.43;;
9392;SDS011;4736;52.508;13.422;2023-04-06T17:54:39;5.43;;;5.10;;
9392;SDS011;4736;52.508;13.422;2023-04-06T17:57:43;5.50;;;5.20;;
9392;SDS011;4736;52.508;13.422;2023-04-06T18:00:47;5.17;;;4.97;;
9392;SDS011;4736;52.508;13.422;2023-04-06T18:03:51;6.37;;;6.00;;
9392;SDS011;4736;52.508;13.422;2023-04-06T18:06:54;5.50;;;5.20;;
9392;SDS011;4736;52.508;13.422;2023-04-06T18:09:58;5.23;;;5.03;;
9392;SDS011;4736;52.508;13.422;2023-04-06T18:13:01;5.60;;;5.40;;
9392;SDS011;4736;52.508;13.422;2023-04-06T18:16:05;5.63;;;5.43;;
9392;SDS011;4736;52.508;13.422;2023-04-06T18:19:10;5.70;;;5.37;;
9392;SDS011;4736;52.508;13.422;2023-04-06T18:22:13;5.50;;;5.30;;
9392;SDS011;4736;52.508;13.422;2023-04-06T18:25:16;6.40;;;6.00;;
9392;SDS011;4736;52.508;13.422;2023-04-06T18:28:19;6.53;;;6.03;;
9392;SDS011;4736;52.508;13.422;2023-04-06T18:31:22;6.77;;;6.17;;
9392;SDS011;4736;52.508;13.422;2023-04-06T18:34:27;5.90;;;5.60;;
9392;SDS011;4736;52.508;13.422;2023-04-06T18:37:30;6.67;;;6.17;;
9392;SDS011;4736;52.508;13.422;2023-04-06T18:40:34;6.90;;;6.40;;